Grete Maersk — OYCY2 — position and weather

sailwx.info

Track history (hours):
 
Tides and Currents Weather Stations Pressure Air Temp Water Temp Dewpoint Dewpoint Depression Visibility Wind Speed Wind Dir Waves Ship Positions

Grete Maersk

Last reported at 2017-Aug-22 16:25 UTC. Time now 2017-Aug-22 16:46 UTC.
Position N 38°28' E 015°55'.

MMSI: 218824136.

Date/timePositionNaut miles runAvg speedWind from/ knotsBaromVisibWave heightAir tempDewpointWater temp
2017-Aug-22 16:25N 38°28' E 015°55'0 0.0
2017-Aug-22 15:50N 38°28' E 015°55'0 0.0
2017-Aug-22 14:46N 38°28' E 015°55'0 0.1
2017-Aug-22 14:30N 38°28' E 015°55'0 0.0
2017-Aug-22 14:00N 38°28' E 015°55'0 0.0
2017-Aug-22 13:29N 38°28' E 015°55'0 0.0
2017-Aug-22 13:00N 38°28' E 015°55'0 0.1
2017-Aug-22 12:30N 38°28' E 015°55'0 0.0
2017-Aug-22 12:00N 38°28' E 015°55'0 0.0
2017-Aug-22 11:30N 38°28' E 015°55'0 0.0
2017-Aug-22 11:00N 38°28' E 015°55'0 0.0
2017-Aug-22 10:30N 38°28' E 015°55'0 0.0
2017-Aug-22 10:00N 38°28' E 015°55'0 0.0
2017-Aug-22 09:31N 38°28' E 015°55'0 0.0
2017-Aug-22 09:01N 38°28' E 015°55'0 0.0
2017-Aug-22 08:31N 38°28' E 015°55'0 0.0
2017-Aug-22 08:00N 38°28' E 015°55'0 0.0
2017-Aug-22 07:30N 38°28' E 015°55'0 0.0
2017-Aug-22 07:00N 38°28' E 015°55'0 0.0
2017-Aug-22 06:30N 38°28' E 015°55'0 0.0
2017-Aug-22 06:00N 38°28' E 015°55'0 0.0
2017-Aug-22 05:30N 38°28' E 015°55'0 0.1
2017-Aug-22 05:00N 38°28' E 015°55'1 2.2
2017-Aug-22 04:30N 38°27' E 015°54'1 2.6
2017-Aug-22 03:59N 38°27' E 015°52'1 2.6
2017-Aug-22 03:30N 38°27' E 015°51'2 3.7
2017-Aug-22 03:00N 38°25' E 015°49'3 6.3
2017-Aug-22 02:30N 38°23' E 015°48'4 7.8
2017-Aug-22 02:00N 38°19' E 015°45'816.2
2017-Aug-22 01:31N 38°14' E 015°37'816.2
2017-Aug-22 01:00N 38°06' E 015°36'815.2
2017-Aug-22 00:30N 37°58' E 015°35'815.1
2017-Aug-22 00:00N 37°52' E 015°40'815.7
2017-Aug-21 23:30N 37°47' E 015°48'815.5
2017-Aug-21 22:58N 37°48' E 015°59'39512.7
2017-Aug-20 15:44N 44°16' E 014°17'416.7
2017-Aug-20 15:31N 44°20' E 014°14'816.7
2017-Aug-20 15:01N 44°27' E 014°10'816.1
2017-Aug-20 14:31N 44°35' E 014°07'816.4
2017-Aug-20 14:01N 44°43' E 014°08'38 1.3
2017-Aug-19 09:31N 45°19' E 014°27'2 7.5
2017-Aug-19 09:16N 45°18' E 014°25'3 6.5
2017-Aug-19 08:53N 45°16' E 014°22'2210.8
2017-Aug-19 06:50N 44°55' E 014°12'7 9.9
2017-Aug-19 06:09N 44°49' E 014°09'212.6
2017-Aug-19 06:00N 44°47' E 014°08'612.3
2017-Aug-19 05:30N 44°43' E 014°01'611.8
2017-Aug-19 05:00N 44°42' E 013°53'612.3
2017-Aug-19 04:31N 44°42' E 013°44'612.0
2017-Aug-19 04:00N 44°40' E 013°36'5 9.9
2017-Aug-19 03:30N 44°42' E 013°30'611.8
2017-Aug-19 03:00N 44°46' E 013°25'611.8
2017-Aug-19 02:30N 44°51' E 013°21'612.0
2017-Aug-19 02:00N 44°57' E 013°16'612.1
2017-Aug-19 01:30N 45°02' E 013°12'612.2
2017-Aug-19 01:00N 45°07' E 013°08'612.4
2017-Aug-19 00:30N 45°13' E 013°04'613.0
2017-Aug-19 00:00N 45°19' E 013°03'612.6
2017-Aug-18 23:30N 45°25' E 013°01'511.1
2017-Aug-18 23:01N 45°30' E 013°06'816.5
2017-Aug-18 22:30N 45°33' E 013°17'917.9
2017-Aug-18 22:01N 45°36' E 013°29'816.5
2017-Aug-18 21:30N 45°39' E 013°40'4 8.4
2017-Aug-18 21:00N 45°38' E 013°45'0 0.7
2017-Aug-18 20:30N 45°38' E 013°46'0 0.0
2017-Aug-18 20:00N 45°38' E 013°46'0 0.0
2017-Aug-18 19:27N 45°38' E 013°46'0 0.1
2017-Aug-18 19:00N 45°38' E 013°46'0 0.1
2017-Aug-18 18:27N 45°38' E 013°46'0 0.0
2017-Aug-18 18:00N 45°38' E 013°46'0 0.0
2017-Aug-18 17:27N 45°38' E 013°46'0 0.0
2017-Aug-18 17:00N 45°38' E 013°46'0 0.0
2017-Aug-18 16:30N 45°38' E 013°46'0 0.0
2017-Aug-18 16:00N 45°38' E 013°46'0 0.0
2017-Aug-18 15:30N 45°38' E 013°46'0 0.0
2017-Aug-18 15:00N 45°38' E 013°46'0 0.0
2017-Aug-18 14:30N 45°38' E 013°46'0 0.0
2017-Aug-18 13:30N 45°38' E 013°46'0 0.0
2017-Aug-18 12:54N 45°38' E 013°46'0 0.0
2017-Aug-18 12:30N 45°38' E 013°46'0 0.0
2017-Aug-18 11:51N 45°38' E 013°46'0 0.0
2017-Aug-18 11:27N 45°38' E 013°46'0 0.0
2017-Aug-18 10:57N 45°38' E 013°46'0 0.0
2017-Aug-18 10:27N 45°38' E 013°46'0 0.0
2017-Aug-18 09:57N 45°38' E 013°46'0 0.0
2017-Aug-18 09:30N 45°38' E 013°46'0 0.0
2017-Aug-18 08:57N 45°38' E 013°46'0 0.0
2017-Aug-18 08:30N 45°38' E 013°46'0 0.0
2017-Aug-18 08:00N 45°38' E 013°46'0 0.0
2017-Aug-18 07:30N 45°38' E 013°46'0 0.0
2017-Aug-18 06:57N 45°38' E 013°46'0 0.0
2017-Aug-18 06:30N 45°38' E 013°46'0 0.0
2017-Aug-18 06:00N 45°38' E 013°46'0 0.0
2017-Aug-18 05:30N 45°38' E 013°46'0 0.0
2017-Aug-18 05:00N 45°38' E 013°46'0 0.0
2017-Aug-18 04:27N 45°38' E 013°46'0 0.0
2017-Aug-18 04:00N 45°38' E 013°46'0 0.0
2017-Aug-18 03:30N 45°38' E 013°46'0 0.0
2017-Aug-18 03:00N 45°38' E 013°46'0 0.0
2017-Aug-18 02:30N 45°38' E 013°46'0 0.0
2017-Aug-18 01:54N 45°38' E 013°46'0 0.0
2017-Aug-18 01:30N 45°38' E 013°46'0 0.0
2017-Aug-18 01:00N 45°38' E 013°46'0 0.1
2017-Aug-18 00:27N 45°38' E 013°46'0 0.0
2017-Aug-17 23:57N 45°38' E 013°46'0 0.0
2017-Aug-17 23:27N 45°38' E 013°46'0 0.0
2017-Aug-17 23:00N 45°38' E 013°46'0 0.0
2017-Aug-17 22:27N 45°38' E 013°46'0 0.0
2017-Aug-17 22:00N 45°38' E 013°46'0 0.0
2017-Aug-17 21:27N 45°38' E 013°46'0 0.0
2017-Aug-17 20:57N 45°38' E 013°46'0 0.0
2017-Aug-17 20:30N 45°38' E 013°46'0 0.0
2017-Aug-17 19:57N 45°38' E 013°46'0 0.0
2017-Aug-17 19:30N 45°38' E 013°46'0 0.0
2017-Aug-17 19:00N 45°38' E 013°46'0 0.0
2017-Aug-17 18:24N 45°38' E 013°46'0 0.0
2017-Aug-17 17:51N 45°38' E 013°46'0 0.0
2017-Aug-17 17:30N 45°38' E 013°46'0 0.0
2017-Aug-17 17:00N 45°38' E 013°46'0 0.0
2017-Aug-17 16:30N 45°38' E 013°46'0 0.0
2017-Aug-17 16:00N 45°38' E 013°46'0 0.0
2017-Aug-17 15:30N 45°38' E 013°46'0 0.0
2017-Aug-17 15:00N 45°38' E 013°46'0 0.0
2017-Aug-17 14:27N 45°38' E 013°46'0 0.0
2017-Aug-17 14:00N 45°38' E 013°46'0 0.0
2017-Aug-17 13:27N 45°38' E 013°46'0 0.0
2017-Aug-17 12:54N 45°38' E 013°46'0 0.0
2017-Aug-17 12:30N 45°38' E 013°46'0 0.0
2017-Aug-17 11:57N 45°38' E 013°46'0 0.0
2017-Aug-17 11:30N 45°38' E 013°46'0 0.1
2017-Aug-17 11:00N 45°38' E 013°46'0 0.0
2017-Aug-17 10:27N 45°38' E 013°46'0 0.0
2017-Aug-17 09:57N 45°38' E 013°46'0 0.0
2017-Aug-17 09:27N 45°38' E 013°46'0 0.0
2017-Aug-17 09:00N 45°38' E 013°46'0 0.0
2017-Aug-17 08:30N 45°38' E 013°46'0 0.0
2017-Aug-17 08:00N 45°38' E 013°46'0 0.0
2017-Aug-17 07:30N 45°38' E 013°46'0 0.0
2017-Aug-17 06:57N 45°38' E 013°46'0 0.0
2017-Aug-17 06:30N 45°38' E 013°46'0 0.0
2017-Aug-17 06:00N 45°38' E 013°46'0 0.0
2017-Aug-17 05:30N 45°38' E 013°46'0 0.0
2017-Aug-17 04:57N 45°38' E 013°46'0 0.0
2017-Aug-17 04:30N 45°38' E 013°46'0 0.1
2017-Aug-17 03:57N 45°38' E 013°46'0 0.0
2017-Aug-17 03:27N 45°38' E 013°46'0 0.0
2017-Aug-17 02:51N 45°38' E 013°46'0 0.0
2017-Aug-17 02:30N 45°38' E 013°46'0 0.0
2017-Aug-17 02:00N 45°38' E 013°46'0 0.0
2017-Aug-17 01:27N 45°38' E 013°46'0 0.0
2017-Aug-17 01:00N 45°38' E 013°46'0 0.0
2017-Aug-17 00:30N 45°38' E 013°46'0 0.0
2017-Aug-17 00:00N 45°38' E 013°46'0 0.0
2017-Aug-16 23:27N 45°38' E 013°46'0 0.0
2017-Aug-16 23:00N 45°38' E 013°46'0 0.0
2017-Aug-16 22:18N 45°38' E 013°46'0 0.1
2017-Aug-16 21:57N 45°38' E 013°46'0 0.1
2017-Aug-16 21:24N 45°38' E 013°46'0 0.0
2017-Aug-16 21:00N 45°38' E 013°46'0 0.0
2017-Aug-16 20:30N 45°38' E 013°46'0 0.0
2017-Aug-16 19:54N 45°38' E 013°46'0 0.0
2017-Aug-16 19:27N 45°38' E 013°46'0 0.0
2017-Aug-16 18:51N 45°38' E 013°46'0 0.0
2017-Aug-16 18:30N 45°38' E 013°46'0 0.0
2017-Aug-16 17:57N 45°38' E 013°46'0 0.0
2017-Aug-16 17:30N 45°38' E 013°46'0 0.0
2017-Aug-16 16:57N 45°38' E 013°46'0 0.0
2017-Aug-16 16:30N 45°38' E 013°46'0 0.0
2017-Aug-16 16:00N 45°38' E 013°46'0 0.0
2017-Aug-16 15:30N 45°38' E 013°46'0 0.1
2017-Aug-16 15:00N 45°38' E 013°46'0 0.1
2017-Aug-16 14:30N 45°38' E 013°46'0 0.0
2017-Aug-16 14:00N 45°38' E 013°46'0 0.0
2017-Aug-16 13:30N 45°38' E 013°46'0 0.0
2017-Aug-16 12:57N 45°38' E 013°46'0 0.0
2017-Aug-16 12:30N 45°38' E 013°46'0 0.0
2017-Aug-16 12:00N 45°38' E 013°46'0 0.9
2017-Aug-16 11:30N 45°38' E 013°45'3 6.5
2017-Aug-16 11:00N 45°39' E 013°41'1 1.3
2017-Aug-16 10:26N 45°40' E 013°41'0 0.1
2017-Aug-16 09:56N 45°40' E 013°41'0 0.0
2017-Aug-16 09:26N 45°40' E 013°41'0 0.1
2017-Aug-16 08:59N 45°40' E 013°41'0 0.1
2017-Aug-16 08:29N 45°40' E 013°41'0 0.1
2017-Aug-16 07:56N 45°40' E 013°41'0 0.0
2017-Aug-16 07:29N 45°40' E 013°41'0 0.0
2017-Aug-16 06:59N 45°40' E 013°41'0 0.1
2017-Aug-16 06:26N 45°40' E 013°40'0 0.1
2017-Aug-16 05:59N 45°40' E 013°40'0 0.1
2017-Aug-16 05:29N 45°40' E 013°40'0 0.0
2017-Aug-16 04:56N 45°40' E 013°40'0 0.0
2017-Aug-16 04:26N 45°40' E 013°40'0 0.0
2017-Aug-16 03:59N 45°40' E 013°40'0 0.1
2017-Aug-16 03:29N 45°40' E 013°40'0 0.0
2017-Aug-16 02:56N 45°40' E 013°40'0 0.0
2017-Aug-16 02:29N 45°40' E 013°40'0 0.0
2017-Aug-16 01:56N 45°40' E 013°40'0 0.0
2017-Aug-16 01:26N 45°40' E 013°40'0 0.0
2017-Aug-16 00:59N 45°40' E 013°40'0 0.0
2017-Aug-16 00:29N 45°40' E 013°40'0 0.1
2017-Aug-15 23:56N 45°40' E 013°40'0 0.1
2017-Aug-15 23:29N 45°40' E 013°40'0 0.0
2017-Aug-15 22:53N 45°40' E 013°40'0 0.0
2017-Aug-15 22:26N 45°40' E 013°40'0 0.0
2017-Aug-15 21:59N 45°40' E 013°40'0 0.0
2017-Aug-15 21:29N 45°40' E 013°40'0 0.0
2017-Aug-15 20:56N 45°40' E 013°40'0 0.0
2017-Aug-15 20:20N 45°40' E 013°40'0 0.1
2017-Aug-15 20:00N 45°40' E 013°40'1 2.1
2017-Aug-15 19:27N 45°39' E 013°39'2 5.3
2017-Aug-15 19:00N 45°37' E 013°39'4 7.0
2017-Aug-15 18:31N 45°34' E 013°40'0 0.5
2017-Aug-15 17:59N 45°34' E 013°40'1 2.7
2017-Aug-15 17:30N 45°34' E 013°42'1 1.7
2017-Aug-15 16:58N 45°33' E 013°43'0 0.6
2017-Aug-15 16:28N 45°33' E 013°44'0 0.0
2017-Aug-15 15:58N 45°33' E 013°44'0 0.0
2017-Aug-15 15:25N 45°33' E 013°44'0 0.1
2017-Aug-15 14:58N 45°33' E 013°44'0 0.1
2017-Aug-15 14:22N 45°33' E 013°44'0 0.0
2017-Aug-15 13:58N 45°33' E 013°44'0 0.0
2017-Aug-15 13:25N 45°33' E 013°44'0 0.0
2017-Aug-15 12:55N 45°33' E 013°44'0 0.0
2017-Aug-15 12:28N 45°33' E 013°44'0 0.0
2017-Aug-15 11:58N 45°33' E 013°44'0 0.0
2017-Aug-15 11:28N 45°33' E 013°44'0 0.0
2017-Aug-15 10:58N 45°33' E 013°44'0 0.0
2017-Aug-15 10:28N 45°33' E 013°44'0 0.1
2017-Aug-15 09:58N 45°33' E 013°44'0 0.1
2017-Aug-15 09:28N 45°33' E 013°44'0 0.0
2017-Aug-15 08:58N 45°33' E 013°44'0 0.0
2017-Aug-15 08:28N 45°33' E 013°44'0 0.0
2017-Aug-15 07:58N 45°33' E 013°44'0 0.0
2017-Aug-15 07:10N 45°33' E 013°44'0 0.1
2017-Aug-15 06:58N 45°33' E 013°44'0 0.0
2017-Aug-15 06:28N 45°33' E 013°44'0 0.1
2017-Aug-15 05:58N 45°33' E 013°44'0 0.2
2017-Aug-15 05:28N 45°33' E 013°44'0 0.1
2017-Aug-15 04:58N 45°33' E 013°44'0 0.0
2017-Aug-15 04:28N 45°33' E 013°44'0 0.0
2017-Aug-15 03:55N 45°33' E 013°44'0 0.0
2017-Aug-15 03:25N 45°33' E 013°44'0 0.1
2017-Aug-15 02:58N 45°33' E 013°44'0 0.1
2017-Aug-15 02:22N 45°33' E 013°44'0 0.1
2017-Aug-15 01:55N 45°33' E 013°44'0 0.1
2017-Aug-15 01:28N 45°33' E 013°44'0 0.0
2017-Aug-15 00:55N 45°33' E 013°44'0 0.0
2017-Aug-15 00:28N 45°33' E 013°44'0 0.0
2017-Aug-14 23:58N 45°33' E 013°44'0 0.0
2017-Aug-14 23:28N 45°33' E 013°44'0 0.0
2017-Aug-14 22:55N 45°33' E 013°44'0 0.0
2017-Aug-14 22:28N 45°33' E 013°44'0 0.0
2017-Aug-14 21:58N 45°33' E 013°44'0 0.0
2017-Aug-14 21:28N 45°33' E 013°44'0 0.0
2017-Aug-14 20:58N 45°33' E 013°44'0 0.0
2017-Aug-14 20:28N 45°33' E 013°44'0 0.0
2017-Aug-14 19:58N 45°33' E 013°44'0 0.0
2017-Aug-14 19:28N 45°33' E 013°44'0 0.0
2017-Aug-14 18:58N 45°33' E 013°44'0 0.0
2017-Aug-14 18:28N 45°33' E 013°44'0 0.0
2017-Aug-14 17:58N 45°33' E 013°44'0 0.0
2017-Aug-14 17:28N 45°33' E 013°44'0 0.0
2017-Aug-14 16:58N 45°33' E 013°44'0 0.0
2017-Aug-14 16:22N 45°33' E 013°44'0 0.0
2017-Aug-14 15:58N 45°33' E 013°44'0 0.0
2017-Aug-14 15:28N 45°33' E 013°44'0 0.0
2017-Aug-14 14:58N 45°33' E 013°44'0 0.1
2017-Aug-14 14:28N 45°33' E 013°44'0 0.0
2017-Aug-14 13:58N 45°33' E 013°44'0 0.1
2017-Aug-14 13:25N 45°33' E 013°44'0 0.0
2017-Aug-14 12:58N 45°33' E 013°44'0 0.0
2017-Aug-14 12:28N 45°33' E 013°44'0 0.0
2017-Aug-14 11:59N 45°33' E 013°44'0 0.0
2017-Aug-14 11:26N 45°33' E 013°44'0 0.0
2017-Aug-14 10:59N 45°33' E 013°44'0 0.1
2017-Aug-14 10:26N 45°33' E 013°44'0 0.0
2017-Aug-14 09:59N 45°33' E 013°44'0 0.0
2017-Aug-14 09:29N 45°33' E 013°44'0 0.0
2017-Aug-14 08:56N 45°33' E 013°44'0 0.0
2017-Aug-14 08:23N 45°33' E 013°44'0 0.0
2017-Aug-14 07:56N 45°33' E 013°44'0 0.2
2017-Aug-14 07:29N 45°33' E 013°44'0 0.1
2017-Aug-14 06:59N 45°33' E 013°44'0 0.0
2017-Aug-14 06:26N 45°33' E 013°44'0 0.0
2017-Aug-14 05:59N 45°33' E 013°44'0 0.0
2017-Aug-14 05:23N 45°33' E 013°44'0 0.0
2017-Aug-14 04:59N 45°33' E 013°44'0 0.1
2017-Aug-14 04:29N 45°33' E 013°44'0 0.1
2017-Aug-14 03:59N 45°33' E 013°44'0 0.0
2017-Aug-14 03:30N 45°33' E 013°44'1 2.7
2017-Aug-14 03:00N 45°34' E 013°42'2 3.4
2017-Aug-14 02:30N 45°34' E 013°40'713.8
2017-Aug-14 02:01N 45°34' E 013°30'816.6
2017-Aug-14 01:30N 45°29' E 013°20'816.1
2017-Aug-14 01:00N 45°24' E 013°12'816.7
2017-Aug-14 00:31N 45°16' E 013°15'816.8
2017-Aug-14 00:01N 45°08' E 013°18'816.8
2017-Aug-13 23:31N 44°60' E 013°22'816.7
2017-Aug-13 23:01N 44°52' E 013°28'816.7
2017-Aug-13 22:31N 44°45' E 013°34'816.8
2017-Aug-13 22:01N 44°38' E 013°40'816.6
2017-Aug-13 21:31N 44°31' E 013°46'816.6
2017-Aug-13 21:01N 44°24' E 013°53'816.4
2017-Aug-13 20:30N 44°17' E 013°59'917.1
2017-Aug-13 20:00N 44°10' E 014°06'  
Track history (hours):
 
Tides and Currents Weather Stations Pressure Air Temp Water Temp Dewpoint Dewpoint Depression Visibility Wind Speed Wind Dir Waves Ship Positions

Grete Maersk

Last reported at 2017-Aug-22 16:25 UTC. Time now 2017-Aug-22 16:46 UTC.
Position N 38°28' E 015°55'.

MMSI: 218824136.

Date/timePositionNaut miles runAvg speedWind from/ knotsBaromVisibWave heightAir tempDewpointWater temp
2017-Aug-22 16:25N 38°28' E 015°55'0 0.0
2017-Aug-22 15:50N 38°28' E 015°55'0 0.0
2017-Aug-22 14:46N 38°28' E 015°55'0 0.1
2017-Aug-22 14:30N 38°28' E 015°55'0 0.0
2017-Aug-22 14:00N 38°28' E 015°55'0 0.0
2017-Aug-22 13:29N 38°28' E 015°55'0 0.0
2017-Aug-22 13:00N 38°28' E 015°55'0 0.1
2017-Aug-22 12:30N 38°28' E 015°55'0 0.0
2017-Aug-22 12:00N 38°28' E 015°55'0 0.0
2017-Aug-22 11:30N 38°28' E 015°55'0 0.0
2017-Aug-22 11:00N 38°28' E 015°55'0 0.0
2017-Aug-22 10:30N 38°28' E 015°55'0 0.0
2017-Aug-22 10:00N 38°28' E 015°55'0 0.0
2017-Aug-22 09:31N 38°28' E 015°55'0 0.0
2017-Aug-22 09:01N 38°28' E 015°55'0 0.0
2017-Aug-22 08:31N 38°28' E 015°55'0 0.0
2017-Aug-22 08:00N 38°28' E 015°55'0 0.0
2017-Aug-22 07:30N 38°28' E 015°55'0 0.0
2017-Aug-22 07:00N 38°28' E 015°55'0 0.0
2017-Aug-22 06:30N 38°28' E 015°55'0 0.0
2017-Aug-22 06:00N 38°28' E 015°55'0 0.0
2017-Aug-22 05:30N 38°28' E 015°55'0 0.1
2017-Aug-22 05:00N 38°28' E 015°55'1 2.2
2017-Aug-22 04:30N 38°27' E 015°54'1 2.6
2017-Aug-22 03:59N 38°27' E 015°52'1 2.6
2017-Aug-22 03:30N 38°27' E 015°51'2 3.7
2017-Aug-22 03:00N 38°25' E 015°49'3 6.3
2017-Aug-22 02:30N 38°23' E 015°48'4 7.8
2017-Aug-22 02:00N 38°19' E 015°45'816.2
2017-Aug-22 01:31N 38°14' E 015°37'816.2
2017-Aug-22 01:00N 38°06' E 015°36'815.2
2017-Aug-22 00:30N 37°58' E 015°35'815.1
2017-Aug-22 00:00N 37°52' E 015°40'815.7
2017-Aug-21 23:30N 37°47' E 015°48'815.5
2017-Aug-21 22:58N 37°48' E 015°59'39512.7
2017-Aug-20 15:44N 44°16' E 014°17'416.7
2017-Aug-20 15:31N 44°20' E 014°14'816.7
2017-Aug-20 15:01N 44°27' E 014°10'816.1
2017-Aug-20 14:31N 44°35' E 014°07'816.4
2017-Aug-20 14:01N 44°43' E 014°08'38 1.3
2017-Aug-19 09:31N 45°19' E 014°27'2 7.5
2017-Aug-19 09:16N 45°18' E 014°25'3 6.5
2017-Aug-19 08:53N 45°16' E 014°22'2210.8
2017-Aug-19 06:50N 44°55' E 014°12'7 9.9
2017-Aug-19 06:09N 44°49' E 014°09'212.6
2017-Aug-19 06:00N 44°47' E 014°08'612.3
2017-Aug-19 05:30N 44°43' E 014°01'611.8
2017-Aug-19 05:00N 44°42' E 013°53'612.3
2017-Aug-19 04:31N 44°42' E 013°44'612.0
2017-Aug-19 04:00N 44°40' E 013°36'5 9.9
2017-Aug-19 03:30N 44°42' E 013°30'611.8
2017-Aug-19 03:00N 44°46' E 013°25'611.8
2017-Aug-19 02:30N 44°51' E 013°21'612.0
2017-Aug-19 02:00N 44°57' E 013°16'612.1
2017-Aug-19 01:30N 45°02' E 013°12'612.2
2017-Aug-19 01:00N 45°07' E 013°08'612.4
2017-Aug-19 00:30N 45°13' E 013°04'613.0
2017-Aug-19 00:00N 45°19' E 013°03'612.6
2017-Aug-18 23:30N 45°25' E 013°01'511.1
2017-Aug-18 23:01N 45°30' E 013°06'816.5
2017-Aug-18 22:30N 45°33' E 013°17'917.9
2017-Aug-18 22:01N 45°36' E 013°29'816.5
2017-Aug-18 21:30N 45°39' E 013°40'4 8.4
2017-Aug-18 21:00N 45°38' E 013°45'0 0.7
2017-Aug-18 20:30N 45°38' E 013°46'0 0.0
2017-Aug-18 20:00N 45°38' E 013°46'0 0.0
2017-Aug-18 19:27N 45°38' E 013°46'0 0.1
2017-Aug-18 19:00N 45°38' E 013°46'0 0.1
2017-Aug-18 18:27N 45°38' E 013°46'0 0.0
2017-Aug-18 18:00N 45°38' E 013°46'0 0.0
2017-Aug-18 17:27N 45°38' E 013°46'0 0.0
2017-Aug-18 17:00N 45°38' E 013°46'0 0.0
2017-Aug-18 16:30N 45°38' E 013°46'0 0.0
2017-Aug-18 16:00N 45°38' E 013°46'0 0.0
2017-Aug-18 15:30N 45°38' E 013°46'0 0.0
2017-Aug-18 15:00N 45°38' E 013°46'0 0.0
2017-Aug-18 14:30N 45°38' E 013°46'0 0.0
2017-Aug-18 13:30N 45°38' E 013°46'0 0.0
2017-Aug-18 12:54N 45°38' E 013°46'0 0.0
2017-Aug-18 12:30N 45°38' E 013°46'0 0.0
2017-Aug-18 11:51N 45°38' E 013°46'0 0.0
2017-Aug-18 11:27N 45°38' E 013°46'0 0.0
2017-Aug-18 10:57N 45°38' E 013°46'0 0.0
2017-Aug-18 10:27N 45°38' E 013°46'0 0.0
2017-Aug-18 09:57N 45°38' E 013°46'0 0.0
2017-Aug-18 09:30N 45°38' E 013°46'0 0.0
2017-Aug-18 08:57N 45°38' E 013°46'0 0.0
2017-Aug-18 08:30N 45°38' E 013°46'0 0.0
2017-Aug-18 08:00N 45°38' E 013°46'0 0.0
2017-Aug-18 07:30N 45°38' E 013°46'0 0.0
2017-Aug-18 06:57N 45°38' E 013°46'0 0.0
2017-Aug-18 06:30N 45°38' E 013°46'0 0.0
2017-Aug-18 06:00N 45°38' E 013°46'0 0.0
2017-Aug-18 05:30N 45°38' E 013°46'0 0.0
2017-Aug-18 05:00N 45°38' E 013°46'0 0.0
2017-Aug-18 04:27N 45°38' E 013°46'0 0.0
2017-Aug-18 04:00N 45°38' E 013°46'0 0.0
2017-Aug-18 03:30N 45°38' E 013°46'0 0.0
2017-Aug-18 03:00N 45°38' E 013°46'0 0.0
2017-Aug-18 02:30N 45°38' E 013°46'0 0.0
2017-Aug-18 01:54N 45°38' E 013°46'0 0.0
2017-Aug-18 01:30N 45°38' E 013°46'0 0.0
2017-Aug-18 01:00N 45°38' E 013°46'0 0.1
2017-Aug-18 00:27N 45°38' E 013°46'0 0.0
2017-Aug-17 23:57N 45°38' E 013°46'0 0.0
2017-Aug-17 23:27N 45°38' E 013°46'0 0.0
2017-Aug-17 23:00N 45°38' E 013°46'0 0.0
2017-Aug-17 22:27N 45°38' E 013°46'0 0.0
2017-Aug-17 22:00N 45°38' E 013°46'0 0.0
2017-Aug-17 21:27N 45°38' E 013°46'0 0.0
2017-Aug-17 20:57N 45°38' E 013°46'0 0.0
2017-Aug-17 20:30N 45°38' E 013°46'0 0.0
2017-Aug-17 19:57N 45°38' E 013°46'0 0.0
2017-Aug-17 19:30N 45°38' E 013°46'0 0.0
2017-Aug-17 19:00N 45°38' E 013°46'0 0.0
2017-Aug-17 18:24N 45°38' E 013°46'0 0.0
2017-Aug-17 17:51N 45°38' E 013°46'0 0.0
2017-Aug-17 17:30N 45°38' E 013°46'0 0.0
2017-Aug-17 17:00N 45°38' E 013°46'0 0.0
2017-Aug-17 16:30N 45°38' E 013°46'0 0.0
2017-Aug-17 16:00N 45°38' E 013°46'0 0.0
2017-Aug-17 15:30N 45°38' E 013°46'0 0.0
2017-Aug-17 15:00N 45°38' E 013°46'0 0.0
2017-Aug-17 14:27N 45°38' E 013°46'0 0.0
2017-Aug-17 14:00N 45°38' E 013°46'0 0.0
2017-Aug-17 13:27N 45°38' E 013°46'0 0.0
2017-Aug-17 12:54N 45°38' E 013°46'0 0.0
2017-Aug-17 12:30N 45°38' E 013°46'0 0.0
2017-Aug-17 11:57N 45°38' E 013°46'0 0.0
2017-Aug-17 11:30N 45°38' E 013°46'0 0.1
2017-Aug-17 11:00N 45°38' E 013°46'0 0.0
2017-Aug-17 10:27N 45°38' E 013°46'0 0.0
2017-Aug-17 09:57N 45°38' E 013°46'0 0.0
2017-Aug-17 09:27N 45°38' E 013°46'0 0.0
2017-Aug-17 09:00N 45°38' E 013°46'0 0.0
2017-Aug-17 08:30N 45°38' E 013°46'0 0.0
2017-Aug-17 08:00N 45°38' E 013°46'0 0.0
2017-Aug-17 07:30N 45°38' E 013°46'0 0.0
2017-Aug-17 06:57N 45°38' E 013°46'0 0.0
2017-Aug-17 06:30N 45°38' E 013°46'0 0.0
2017-Aug-17 06:00N 45°38' E 013°46'0 0.0
2017-Aug-17 05:30N 45°38' E 013°46'0 0.0
2017-Aug-17 04:57N 45°38' E 013°46'0 0.0
2017-Aug-17 04:30N 45°38' E 013°46'0 0.1
2017-Aug-17 03:57N 45°38' E 013°46'0 0.0
2017-Aug-17 03:27N 45°38' E 013°46'0 0.0
2017-Aug-17 02:51N 45°38' E 013°46'0 0.0
2017-Aug-17 02:30N 45°38' E 013°46'0 0.0
2017-Aug-17 02:00N 45°38' E 013°46'0 0.0
2017-Aug-17 01:27N 45°38' E 013°46'0 0.0
2017-Aug-17 01:00N 45°38' E 013°46'0 0.0
2017-Aug-17 00:30N 45°38' E 013°46'0 0.0
2017-Aug-17 00:00N 45°38' E 013°46'0 0.0
2017-Aug-16 23:27N 45°38' E 013°46'0 0.0
2017-Aug-16 23:00N 45°38' E 013°46'0 0.0
2017-Aug-16 22:18N 45°38' E 013°46'0 0.1
2017-Aug-16 21:57N 45°38' E 013°46'0 0.1
2017-Aug-16 21:24N 45°38' E 013°46'0 0.0
2017-Aug-16 21:00N 45°38' E 013°46'0 0.0
2017-Aug-16 20:30N 45°38' E 013°46'0 0.0
2017-Aug-16 19:54N 45°38' E 013°46'0 0.0
2017-Aug-16 19:27N 45°38' E 013°46'0 0.0
2017-Aug-16 18:51N 45°38' E 013°46'0 0.0
2017-Aug-16 18:30N 45°38' E 013°46'0 0.0
2017-Aug-16 17:57N 45°38' E 013°46'0 0.0
2017-Aug-16 17:30N 45°38' E 013°46'0 0.0
2017-Aug-16 16:57N 45°38' E 013°46'0 0.0
2017-Aug-16 16:30N 45°38' E 013°46'0 0.0
2017-Aug-16 16:00N 45°38' E 013°46'0 0.0
2017-Aug-16 15:30N 45°38' E 013°46'0 0.1
2017-Aug-16 15:00N 45°38' E 013°46'0 0.1
2017-Aug-16 14:30N 45°38' E 013°46'0 0.0
2017-Aug-16 14:00N 45°38' E 013°46'0 0.0
2017-Aug-16 13:30N 45°38' E 013°46'0 0.0
2017-Aug-16 12:57N 45°38' E 013°46'0 0.0
2017-Aug-16 12:30N 45°38' E 013°46'0 0.0
2017-Aug-16 12:00N 45°38' E 013°46'0 0.9
2017-Aug-16 11:30N 45°38' E 013°45'3 6.5
2017-Aug-16 11:00N 45°39' E 013°41'1 1.3
2017-Aug-16 10:26N 45°40' E 013°41'0 0.1
2017-Aug-16 09:56N 45°40' E 013°41'0 0.0
2017-Aug-16 09:26N 45°40' E 013°41'0 0.1
2017-Aug-16 08:59N 45°40' E 013°41'0 0.1
2017-Aug-16 08:29N 45°40' E 013°41'0 0.1
2017-Aug-16 07:56N 45°40' E 013°41'0 0.0
2017-Aug-16 07:29N 45°40' E 013°41'0 0.0
2017-Aug-16 06:59N 45°40' E 013°41'0 0.1
2017-Aug-16 06:26N 45°40' E 013°40'0 0.1
2017-Aug-16 05:59N 45°40' E 013°40'0 0.1
2017-Aug-16 05:29N 45°40' E 013°40'0 0.0
2017-Aug-16 04:56N 45°40' E 013°40'0 0.0
2017-Aug-16 04:26N 45°40' E 013°40'0 0.0
2017-Aug-16 03:59N 45°40' E 013°40'0 0.1
2017-Aug-16 03:29N 45°40' E 013°40'0 0.0
2017-Aug-16 02:56N 45°40' E 013°40'0 0.0
2017-Aug-16 02:29N 45°40' E 013°40'0 0.0
2017-Aug-16 01:56N 45°40' E 013°40'0 0.0
2017-Aug-16 01:26N 45°40' E 013°40'0 0.0
2017-Aug-16 00:59N 45°40' E 013°40'0 0.0
2017-Aug-16 00:29N 45°40' E 013°40'0 0.1
2017-Aug-15 23:56N 45°40' E 013°40'0 0.1
2017-Aug-15 23:29N 45°40' E 013°40'0 0.0
2017-Aug-15 22:53N 45°40' E 013°40'0 0.0
2017-Aug-15 22:26N 45°40' E 013°40'0 0.0
2017-Aug-15 21:59N 45°40' E 013°40'0 0.0
2017-Aug-15 21:29N 45°40' E 013°40'0 0.0
2017-Aug-15 20:56N 45°40' E 013°40'0 0.0
2017-Aug-15 20:20N 45°40' E 013°40'0 0.1
2017-Aug-15 20:00N 45°40' E 013°40'1 2.1
2017-Aug-15 19:27N 45°39' E 013°39'2 5.3
2017-Aug-15 19:00N 45°37' E 013°39'4 7.0
2017-Aug-15 18:31N 45°34' E 013°40'0 0.5
2017-Aug-15 17:59N 45°34' E 013°40'1 2.7
2017-Aug-15 17:30N 45°34' E 013°42'1 1.7
2017-Aug-15 16:58N 45°33' E 013°43'0 0.6
2017-Aug-15 16:28N 45°33' E 013°44'0 0.0
2017-Aug-15 15:58N 45°33' E 013°44'0 0.0
2017-Aug-15 15:25N 45°33' E 013°44'0 0.1
2017-Aug-15 14:58N 45°33' E 013°44'0 0.1
2017-Aug-15 14:22N 45°33' E 013°44'0 0.0
2017-Aug-15 13:58N 45°33' E 013°44'0 0.0
2017-Aug-15 13:25N 45°33' E 013°44'0 0.0
2017-Aug-15 12:55N 45°33' E 013°44'0 0.0
2017-Aug-15 12:28N 45°33' E 013°44'0 0.0
2017-Aug-15 11:58N 45°33' E 013°44'0 0.0
2017-Aug-15 11:28N 45°33' E 013°44'0 0.0
2017-Aug-15 10:58N 45°33' E 013°44'0 0.0
2017-Aug-15 10:28N 45°33' E 013°44'0 0.1
2017-Aug-15 09:58N 45°33' E 013°44'0 0.1
2017-Aug-15 09:28N 45°33' E 013°44'0 0.0
2017-Aug-15 08:58N 45°33' E 013°44'0 0.0
2017-Aug-15 08:28N 45°33' E 013°44'0 0.0
2017-Aug-15 07:58N 45°33' E 013°44'0 0.0
2017-Aug-15 07:10N 45°33' E 013°44'0 0.1
2017-Aug-15 06:58N 45°33' E 013°44'0 0.0
2017-Aug-15 06:28N 45°33' E 013°44'0 0.1
2017-Aug-15 05:58N 45°33' E 013°44'0 0.2
2017-Aug-15 05:28N 45°33' E 013°44'0 0.1
2017-Aug-15 04:58N 45°33' E 013°44'0 0.0
2017-Aug-15 04:28N 45°33' E 013°44'0 0.0
2017-Aug-15 03:55N 45°33' E 013°44'0 0.0
2017-Aug-15 03:25N 45°33' E 013°44'0 0.1
2017-Aug-15 02:58N 45°33' E 013°44'0 0.1
2017-Aug-15 02:22N 45°33' E 013°44'0 0.1
2017-Aug-15 01:55N 45°33' E 013°44'0 0.1
2017-Aug-15 01:28N 45°33' E 013°44'0 0.0
2017-Aug-15 00:55N 45°33' E 013°44'0 0.0
2017-Aug-15 00:28N 45°33' E 013°44'0 0.0
2017-Aug-14 23:58N 45°33' E 013°44'0 0.0
2017-Aug-14 23:28N 45°33' E 013°44'0 0.0
2017-Aug-14 22:55N 45°33' E 013°44'0 0.0
2017-Aug-14 22:28N 45°33' E 013°44'0 0.0
2017-Aug-14 21:58N 45°33' E 013°44'0 0.0
2017-Aug-14 21:28N 45°33' E 013°44'0 0.0
2017-Aug-14 20:58N 45°33' E 013°44'0 0.0
2017-Aug-14 20:28N 45°33' E 013°44'0 0.0
2017-Aug-14 19:58N 45°33' E 013°44'0 0.0
2017-Aug-14 19:28N 45°33' E 013°44'0 0.0
2017-Aug-14 18:58N 45°33' E 013°44'0 0.0
2017-Aug-14 18:28N 45°33' E 013°44'0 0.0
2017-Aug-14 17:58N 45°33' E 013°44'0 0.0
2017-Aug-14 17:28N 45°33' E 013°44'0 0.0
2017-Aug-14 16:58N 45°33' E 013°44'0 0.0
2017-Aug-14 16:22N 45°33' E 013°44'0 0.0
2017-Aug-14 15:58N 45°33' E 013°44'0 0.0
2017-Aug-14 15:28N 45°33' E 013°44'0 0.0
2017-Aug-14 14:58N 45°33' E 013°44'0 0.1
2017-Aug-14 14:28N 45°33' E 013°44'0 0.0
2017-Aug-14 13:58N 45°33' E 013°44'0 0.1
2017-Aug-14 13:25N 45°33' E 013°44'0 0.0
2017-Aug-14 12:58N 45°33' E 013°44'0 0.0
2017-Aug-14 12:28N 45°33' E 013°44'0 0.0
2017-Aug-14 11:59N 45°33' E 013°44'0 0.0
2017-Aug-14 11:26N 45°33' E 013°44'0 0.0
2017-Aug-14 10:59N 45°33' E 013°44'0 0.1
2017-Aug-14 10:26N 45°33' E 013°44'0 0.0
2017-Aug-14 09:59N 45°33' E 013°44'0 0.0
2017-Aug-14 09:29N 45°33' E 013°44'0 0.0
2017-Aug-14 08:56N 45°33' E 013°44'0 0.0
2017-Aug-14 08:23N 45°33' E 013°44'0 0.0
2017-Aug-14 07:56N 45°33' E 013°44'0 0.2
2017-Aug-14 07:29N 45°33' E 013°44'0 0.1
2017-Aug-14 06:59N 45°33' E 013°44'0 0.0
2017-Aug-14 06:26N 45°33' E 013°44'0 0.0
2017-Aug-14 05:59N 45°33' E 013°44'0 0.0
2017-Aug-14 05:23N 45°33' E 013°44'0 0.0
2017-Aug-14 04:59N 45°33' E 013°44'0 0.1
2017-Aug-14 04:29N 45°33' E 013°44'0 0.1
2017-Aug-14 03:59N 45°33' E 013°44'0 0.0
2017-Aug-14 03:30N 45°33' E 013°44'1 2.7
2017-Aug-14 03:00N 45°34' E 013°42'2 3.4
2017-Aug-14 02:30N 45°34' E 013°40'713.8
2017-Aug-14 02:01N 45°34' E 013°30'816.6
2017-Aug-14 01:30N 45°29' E 013°20'816.1
2017-Aug-14 01:00N 45°24' E 013°12'816.7
2017-Aug-14 00:31N 45°16' E 013°15'816.8
2017-Aug-14 00:01N 45°08' E 013°18'816.8
2017-Aug-13 23:31N 44°60' E 013°22'816.7
2017-Aug-13 23:01N 44°52' E 013°28'816.7
2017-Aug-13 22:31N 44°45' E 013°34'816.8
2017-Aug-13 22:01N 44°38' E 013°40'816.6
2017-Aug-13 21:31N 44°31' E 013°46'816.6
2017-Aug-13 21:01N 44°24' E 013°53'816.4
2017-Aug-13 20:30N 44°17' E 013°59'917.1
2017-Aug-13 20:00N 44°10' E 014°06'  

Dump ship's entire track history